Terminal Aerodrome Forecast
Issued by NWS Grand Forks, ND

Home | Current Version | Previous Version | Text Only | Print | Product List | Glossary On
Versions: 1 2 3 4 5 6 7 8 9 10 11 12 13 14 15 16
682
FTUS43 KFGF 032020 AAB
TAFFAR
TAF AMD
KFAR 032020Z 0320/0418 15013G19KT P6SM BKN017
     FM040100 15013KT P6SM -SN BKN015
     FM041100 20008KT P6SM -SN OVC008
     FM041500 24008KT P6SM -SN OVC008=

USA.gov is the U.S. government's official web portal to all federal, state and local government web resources and services.